Main page
METAR-TAF:

METAR-TAF

Airports :

Rabat–Salé Airport

Rabat, Morocco

latitude: 34-03N, longitude: 006-46W, elevation: 84 m

Current weather observation

The report was made 15 minutes ago, at 23:30 UTC
Wind 6 kt from the North/Northwest
Temperature 16°C
Humidity 88%
Pressure 1015 hPa
Visibility: 6000 m

METAR: GMME 012330Z 34006KT 6000 NSC 16/14 Q1015 NOSIG

Time: 00:45 (23:45 UTC)

Forecast

The report was made 45 minutes ago, at 23:00 UTC
Forecast valid from 02 at 00 UTC to 03 at 06 UTC
Wind 8 kt from the North/Northwest
Visibility: 7000 m
Scattered clouds at a height of 1600 ft
Temporary
from 02 at 02 UTC to 02 at 06 UTC
Wind 2 kt from variable directions
Visibility: 5000 m
Scattered clouds at a height of 1000 ft
Broken clouds at a height of 1300 ft
Temporary
from 02 at 08 UTC to 02 at 18 UTC
Wind 16 kt from the Northwest
Visibility: 8000 m

TAF: GMME 012300Z 0200/0306 34008KT 7000 SCT016 TEMPO 0202/0206 VRB02KT 5000 SCT010 BKN013 TEMPO 0208/0218 32016KT 8000 NSC

Weather observations and forecasts of more than 4000 airports (METAR and TAF reports).

The available stations are represented by yellow and red dots on the map.

Hover mouse over dot to see the name of the station.

Then click to see weather observations and forecasts.

To change the map : click on the green buttons with a black cross to zoom in, on the green button with a dash to zoom out, or on the green arrows for adjacent maps.


METAR-TAF: